createdAt,value
2019-05-10T00:36:32.462Z,0.00
2019-05-10T00:37:33.599Z,0.00
2019-05-10T00:38:32.493Z,0.00
2019-05-10T00:39:32.526Z,0.00
2019-05-10T00:40:32.529Z,0.00
2019-05-10T00:41:32.582Z,0.00
2019-05-10T00:42:32.548Z,0.00
2019-05-10T02:16:06.309Z,0.00
2019-05-10T12:09:52.611Z,3292.00
2019-05-10T12:10:52.995Z,3628.00
2019-05-10T12:11:51.788Z,3764.00
2019-05-10T12:13:01.664Z,2720.00
2019-05-10T12:13:46.717Z,4000.00
2019-05-10T12:14:46.884Z,2856.00
2019-05-10T12:15:46.767Z,3840.00
2019-05-10T12:16:48.307Z,3752.00
2019-05-10T12:17:49.811Z,3924.00
2019-05-10T12:19:01.206Z,3352.00
2019-05-10T12:19:50.492Z,3956.00
2019-05-10T12:20:54.795Z,2812.00
2019-05-10T12:21:46.779Z,2780.00
2019-05-10T12:22:47.689Z,3004.00
2019-05-10T12:25:14.130Z,2896.00
2019-05-10T12:26:18.916Z,2668.00
2019-05-10T12:26:33.846Z,4320.00
2019-05-10T12:27:12.988Z,3048.00
2019-05-10T12:27:49.189Z,3408.00
2019-05-10T12:28:47.468Z,3564.00
2019-05-10T12:29:51.840Z,4148.00
2019-05-10T12:30:47.456Z,4184.00
2019-05-10T12:31:52.146Z,4068.00
2019-05-10T12:32:55.859Z,4128.00
2019-05-10T12:33:46.308Z,4024.00
2019-05-10T12:34:50.452Z,4060.00
2019-05-10T12:35:47.344Z,3844.00
2019-05-10T12:36:46.337Z,2480.00
2019-05-10T12:37:51.405Z,3652.00
2019-05-10T12:38:45.868Z,3848.00
2019-05-10T12:39:45.837Z,3480.00
2019-05-10T12:40:46.058Z,2272.00
2019-05-10T12:41:49.643Z,4060.00
2019-05-10T12:42:47.055Z,4072.00
2019-05-10T12:43:48.548Z,3068.00
2019-05-10T12:44:47.928Z,2136.00
2019-05-10T12:45:46.038Z,2736.00
2019-05-10T12:46:46.103Z,3960.00
2019-05-10T12:47:47.002Z,4316.00
2019-05-10T12:48:46.027Z,4476.00
2019-05-10T12:49:46.099Z,3916.00
2019-05-10T12:50:46.096Z,3000.00
2019-05-10T12:51:46.086Z,2772.00
2019-05-10T12:52:50.516Z,2548.00
2019-05-10T12:53:49.228Z,2508.00
2019-05-10T12:54:46.152Z,2364.00
2019-05-10T12:55:46.348Z,2412.00
2019-05-10T12:56:46.341Z,2508.00
2019-05-10T12:57:46.253Z,2568.00
2019-05-10T12:58:56.328Z,2460.00
2019-05-10T12:59:46.373Z,2252.00
2019-05-10T13:00:51.654Z,2156.00
2019-05-10T13:01:46.292Z,2056.00
2019-05-10T13:02:51.079Z,1852.00
2019-05-10T13:03:46.379Z,1668.00
2019-05-10T13:04:46.990Z,1456.00
2019-05-10T13:05:52.358Z,1320.00
2019-05-10T13:06:46.660Z,1328.00
2019-05-10T13:07:48.217Z,1388.00
2019-05-10T13:08:46.494Z,1580.00
2019-05-10T13:09:49.637Z,1840.00
2019-05-10T13:10:49.787Z,2040.00
2019-05-10T13:11:46.613Z,1876.00
2019-05-10T13:12:47.406Z,1808.00
2019-05-10T13:13:46.598Z,1756.00
2019-05-10T13:14:51.906Z,1620.00
2019-05-10T13:15:46.619Z,1312.00
2019-05-10T13:16:46.642Z,1060.00
2019-05-10T13:17:50.468Z,968.00
2019-05-10T13:18:52.346Z,956.00
2019-05-10T13:19:46.652Z,984.00
2019-05-10T13:20:46.676Z,1064.00
2019-05-10T13:21:46.694Z,1160.00
2019-05-10T13:22:47.342Z,1272.00
2019-05-10T13:23:46.750Z,1456.00
2019-05-10T13:24:46.851Z,1616.00
2019-05-10T13:25:46.856Z,1792.00
2019-05-10T13:26:46.910Z,1940.00
2019-05-10T13:27:46.879Z,2052.00
2019-05-10T13:28:46.916Z,2104.00
2019-05-10T13:29:52.808Z,2104.00
2019-05-10T13:30:46.929Z,2108.00
2019-05-10T13:31:46.925Z,2092.00
2019-05-10T13:32:52.654Z,2076.00
2019-05-10T13:33:47.117Z,2148.00
2019-05-10T13:34:47.915Z,2296.00
2019-05-10T13:35:50.655Z,2488.00
2019-05-10T13:36:47.428Z,2712.00
2019-05-10T13:38:49.225Z,3044.00
2019-05-10T13:39:47.504Z,3020.00
2019-05-10T13:40:48.659Z,2972.00
2019-05-10T13:41:51.110Z,2892.00
2019-05-10T13:42:48.375Z,2848.00
2019-05-10T13:43:47.955Z,2792.00
2019-05-10T13:44:47.528Z,2844.00
2019-05-10T13:45:48.314Z,3012.00
2019-05-10T13:46:47.257Z,3900.00
2019-05-10T13:47:47.183Z,3804.00
2019-05-10T13:48:47.215Z,4180.00
2019-05-10T13:49:48.886Z,4020.00
2019-05-10T13:50:47.305Z,3780.00
2019-05-10T13:51:47.242Z,3820.00
2019-05-10T13:52:47.390Z,3772.00
2019-05-10T13:53:47.332Z,3556.00
2019-05-10T13:54:47.303Z,3524.00
2019-05-10T13:55:47.316Z,3712.00
2019-05-10T13:56:52.242Z,3552.00
2019-05-10T13:57:47.449Z,3564.00
2019-05-10T13:58:47.381Z,3588.00
2019-05-10T13:59:49.065Z,3796.00
2019-05-10T14:00:47.500Z,4548.00
2019-05-10T14:01:49.564Z,4088.00
2019-05-10T14:02:47.559Z,3880.00
2019-05-10T14:03:53.995Z,3804.00
2019-05-10T14:04:47.500Z,3856.00
2019-05-10T14:05:47.513Z,4876.00
2019-05-10T14:06:47.670Z,4916.00
2019-05-10T14:07:51.831Z,4944.00
2019-05-10T14:08:48.807Z,4760.00
2019-05-10T14:09:47.599Z,4756.00
2019-05-10T14:10:49.677Z,4544.00
2019-05-10T14:11:47.628Z,4092.00
2019-05-10T14:12:47.722Z,3268.00
2019-05-10T14:13:47.685Z,3196.00
2019-05-10T14:14:47.689Z,3328.00
2019-05-10T14:15:47.705Z,3436.00
2019-05-10T14:16:47.796Z,3280.00
2019-05-10T14:17:47.819Z,3176.00
2019-05-10T14:18:47.766Z,2968.00
2019-05-10T14:19:47.786Z,2976.00
2019-05-10T14:20:47.832Z,2788.00
2019-05-10T14:21:47.875Z,2904.00
2019-05-10T14:22:55.991Z,2468.00
2019-05-10T14:23:47.875Z,1880.00
2019-05-10T14:24:53.267Z,2888.00
2019-05-10T14:25:47.980Z,2952.00
2019-05-10T14:26:51.541Z,3028.00
2019-05-10T14:27:47.940Z,3040.00
2019-05-10T14:28:53.167Z,3036.00
2019-05-10T14:29:48.004Z,3000.00
2019-05-10T14:30:56.643Z,2976.00
2019-05-10T14:31:48.063Z,2920.00
2019-05-10T14:32:48.129Z,2808.00
2019-05-10T14:34:14.053Z,2772.00
2019-05-10T14:34:48.221Z,2808.00
2019-05-10T14:35:48.249Z,2016.00
2019-05-10T14:36:48.120Z,1648.00
2019-05-10T14:37:48.438Z,1620.00
2019-05-10T14:38:53.896Z,1548.00
2019-05-10T14:39:48.265Z,1428.00
2019-05-10T14:40:48.227Z,1428.00
2019-05-10T14:41:51.049Z,1444.00
2019-05-10T14:42:48.259Z,1544.00
2019-05-10T14:43:48.336Z,1652.00
2019-05-10T14:44:48.343Z,1744.00
2019-05-10T14:45:48.370Z,1932.00
2019-05-10T14:46:48.371Z,2996.00
2019-05-10T14:47:50.619Z,2964.00
2019-05-10T14:48:48.475Z,3476.00
2019-05-10T14:49:48.743Z,3524.00
2019-05-10T14:50:48.398Z,2768.00
2019-05-10T14:51:58.253Z,3516.00
2019-05-10T14:52:48.565Z,3152.00
2019-05-10T14:53:48.466Z,2884.00
2019-05-10T14:54:49.965Z,2408.00
2019-05-10T14:55:48.496Z,2760.00
2019-05-10T14:56:48.515Z,2768.00
2019-05-10T14:57:48.568Z,2424.00
2019-05-10T14:58:48.580Z,2316.00
2019-05-10T14:59:48.589Z,2152.00
2019-05-10T15:00:48.598Z,2048.00
2019-05-10T15:01:48.621Z,2012.00
2019-05-10T15:02:48.639Z,2020.00
2019-05-10T15:03:48.651Z,2108.00
2019-05-10T15:04:48.733Z,2288.00
2019-05-10T15:05:54.050Z,2448.00
2019-05-10T15:06:48.728Z,2548.00
2019-05-10T15:07:51.074Z,2648.00
2019-05-10T15:08:48.772Z,2776.00
2019-05-10T15:09:48.771Z,2732.00
2019-05-10T15:10:48.793Z,2684.00
2019-05-10T15:11:48.873Z,2616.00
2019-05-10T15:12:48.826Z,2472.00
2019-05-10T15:13:48.933Z,2284.00
2019-05-10T15:14:48.865Z,2128.00
2019-05-10T15:15:48.891Z,1964.00
2019-05-10T15:16:48.936Z,1800.00
2019-05-10T15:17:55.144Z,1540.00
2019-05-10T15:18:49.103Z,1208.00
2019-05-10T15:19:57.898Z,880.00
2019-05-10T15:20:49.019Z,572.00
2019-05-10T15:21:49.026Z,400.00
2019-05-10T15:22:49.016Z,280.00
2019-05-10T15:23:49.037Z,224.00
2019-05-10T15:24:49.135Z,224.00
2019-05-10T15:25:57.026Z,252.00
2019-05-10T15:26:49.095Z,292.00
2019-05-10T15:27:49.179Z,312.00
2019-05-10T15:28:49.145Z,392.00
2019-05-10T15:29:49.160Z,432.00
2019-05-10T15:30:52.372Z,456.00
2019-05-10T15:31:49.189Z,484.00
2019-05-10T15:32:49.254Z,492.00
2019-05-10T15:33:49.224Z,520.00
2019-05-10T15:35:05.618Z,540.00
2019-05-10T15:35:51.873Z,552.00
2019-05-10T15:36:49.279Z,592.00
2019-05-10T15:37:49.297Z,664.00
2019-05-10T15:38:52.044Z,740.00
2019-05-10T15:39:49.328Z,808.00
2019-05-10T15:40:49.356Z,856.00
2019-05-10T15:41:53.630Z,856.00
2019-05-10T15:42:49.388Z,840.00
2019-05-10T15:43:53.603Z,868.00
2019-05-10T15:44:49.431Z,968.00
2019-05-10T15:45:52.661Z,1084.00
2019-05-10T15:46:49.469Z,1188.00
2019-05-10T15:47:51.626Z,1300.00
2019-05-10T15:48:49.526Z,1484.00
2019-05-10T15:49:49.529Z,1620.00
2019-05-10T15:50:49.526Z,1640.00
2019-05-10T15:51:56.933Z,1604.00
2019-05-10T15:52:49.571Z,1556.00
2019-05-10T15:53:49.605Z,1516.00
2019-05-10T15:54:49.627Z,1488.00
2019-05-10T15:55:49.651Z,1464.00
2019-05-10T15:56:49.663Z,1456.00
2019-05-10T15:57:51.689Z,1384.00
2019-05-10T15:58:49.810Z,1340.00
2019-05-10T15:59:50.668Z,1384.00
2019-05-10T16:00:49.727Z,1460.00
2019-05-10T16:01:49.717Z,1596.00
2019-05-10T16:02:53.046Z,1664.00
2019-05-10T16:03:49.824Z,1764.00
2019-05-10T16:04:49.775Z,1852.00
2019-05-10T16:06:00.347Z,1940.00
2019-05-10T16:06:49.801Z,2008.00
2019-05-10T16:07:51.620Z,2028.00
2019-05-10T16:08:49.838Z,1988.00
2019-05-10T16:09:54.419Z,1924.00
2019-05-10T16:10:49.884Z,1944.00
2019-05-10T16:11:49.968Z,1996.00
2019-05-10T16:12:49.978Z,2004.00
2019-05-10T16:13:54.665Z,2028.00
2019-05-10T16:14:49.940Z,2056.00
2019-05-10T16:15:51.645Z,2136.00
2019-05-10T16:16:50.000Z,2180.00
2019-05-10T16:17:53.814Z,2184.00
2019-05-10T16:18:50.052Z,2148.00
2019-05-10T16:19:50.366Z,2096.00
2019-05-10T16:20:50.055Z,2048.00
2019-05-10T16:21:52.204Z,2028.00
2019-05-10T16:22:50.079Z,1996.00
2019-05-10T16:23:50.167Z,2028.00
2019-05-10T16:24:50.178Z,2172.00
2019-05-10T16:25:50.137Z,2356.00
2019-05-10T16:26:54.611Z,2416.00
2019-05-10T16:27:50.287Z,2368.00
2019-05-10T16:28:53.106Z,2348.00
2019-05-10T16:29:50.238Z,2380.00
2019-05-10T16:30:50.277Z,2296.00
2019-05-10T16:31:50.335Z,2348.00
2019-05-10T16:32:50.300Z,2324.00
2019-05-10T16:33:53.535Z,2264.00
2019-05-10T16:34:50.423Z,2216.00
2019-05-10T16:35:52.040Z,2148.00
2019-05-10T16:36:50.344Z,2104.00
2019-05-10T16:37:50.415Z,2112.00
2019-05-10T16:38:50.397Z,2048.00
2019-05-10T16:39:50.455Z,1896.00
2019-05-10T16:40:58.311Z,1732.00
2019-05-10T16:41:50.481Z,1612.00
2019-05-10T16:42:50.501Z,1552.00
2019-05-10T16:43:51.807Z,1488.00
2019-05-10T16:44:50.607Z,1456.00
2019-05-10T16:45:50.813Z,1496.00
2019-05-10T16:46:50.659Z,1480.00
2019-05-10T16:47:50.661Z,1508.00
2019-05-10T16:48:50.692Z,1520.00
2019-05-10T16:49:53.222Z,1544.00
2019-05-10T16:50:50.666Z,1552.00
2019-05-10T16:51:50.743Z,1588.00
2019-05-10T16:52:50.701Z,1588.00
2019-05-10T16:53:50.783Z,1624.00
2019-05-10T16:54:50.772Z,1560.00
2019-05-10T16:55:50.701Z,1552.00
2019-05-10T16:56:51.526Z,1532.00
2019-05-10T16:57:51.596Z,1456.00
2019-05-10T16:58:53.084Z,1408.00
2019-05-10T16:59:50.845Z,1340.00
2019-05-10T17:00:50.761Z,1240.00
2019-05-10T17:01:50.817Z,1148.00
2019-05-10T17:02:50.890Z,1116.00
2019-05-10T17:04:00.068Z,1132.00
2019-05-10T17:04:50.924Z,1116.00
2019-05-10T17:05:53.929Z,1080.00
2019-05-10T17:06:50.940Z,1068.00
2019-05-10T17:07:53.697Z,1052.00
2019-05-10T17:08:50.895Z,1036.00
2019-05-10T17:09:54.693Z,1016.00
2019-05-10T17:10:50.951Z,1004.00
2019-05-10T17:11:51.037Z,992.00
2019-05-10T17:12:52.044Z,976.00
2019-05-10T17:13:51.086Z,968.00
2019-05-10T17:14:56.359Z,956.00
2019-05-10T17:15:52.183Z,948.00
2019-05-10T17:16:58.553Z,936.00
2019-05-10T17:17:51.232Z,928.00
2019-05-10T17:18:55.277Z,920.00
2019-05-10T17:19:51.159Z,916.00
2019-05-10T17:20:52.470Z,912.00
2019-05-10T17:21:51.127Z,908.00
2019-05-10T17:22:51.249Z,900.00
2019-05-10T17:23:51.327Z,884.00
2019-05-10T17:24:51.260Z,876.00
2019-05-10T17:25:51.195Z,864.00
2019-05-10T17:26:51.427Z,852.00
2019-05-10T17:27:57.392Z,840.00
2019-05-10T17:28:51.371Z,832.00
2019-05-10T17:29:51.380Z,824.00
2019-05-10T17:30:51.305Z,816.00
2019-05-10T17:31:51.302Z,804.00
2019-05-10T17:32:51.307Z,800.00
2019-05-10T17:33:51.325Z,792.00
2019-05-10T17:34:51.421Z,784.00
2019-05-10T17:35:51.440Z,776.00
2019-05-10T17:36:57.081Z,760.00
2019-05-10T17:37:53.078Z,756.00
2019-05-10T17:38:53.500Z,748.00
2019-05-10T17:39:53.722Z,692.00
2019-05-10T17:40:51.479Z,680.00
2019-05-10T17:41:51.463Z,704.00
2019-05-10T17:42:51.756Z,660.00
2019-05-10T17:43:51.528Z,648.00
2019-05-10T17:44:55.273Z,636.00
2019-05-10T17:45:51.572Z,620.00
2019-05-10T17:46:55.502Z,604.00
2019-05-10T17:47:51.556Z,588.00
2019-05-10T17:48:51.660Z,576.00
2019-05-10T17:49:51.650Z,560.00
2019-05-10T17:50:51.660Z,548.00
2019-05-10T17:51:51.643Z,532.00
2019-05-10T17:52:51.655Z,524.00
2019-05-10T17:53:55.056Z,520.00
2019-05-10T17:54:51.690Z,520.00
2019-05-10T17:55:55.584Z,516.00
2019-05-10T17:56:51.743Z,508.00
2019-05-10T17:57:54.839Z,496.00
2019-05-10T17:58:51.757Z,488.00
2019-05-10T17:59:53.110Z,480.00
2019-05-10T18:00:51.777Z,476.00
2019-05-10T18:01:51.856Z,472.00
2019-05-10T18:02:51.812Z,480.00
2019-05-10T18:03:51.827Z,492.00
2019-05-10T18:04:51.881Z,500.00
2019-05-10T18:05:53.459Z,496.00
2019-05-10T18:06:51.875Z,480.00
2019-05-10T18:07:51.890Z,460.00
2019-05-10T18:08:51.903Z,448.00
